Time;durP1;ratioP1;P1;durP2;ratioP2;P2;SDS_P1;SDS_P2;PMS_P1;PMS_P2;Temp;Humidity;BMP_temperature;BMP_pressure;BME280_temperature;BME280_humidity;BME280_pressure;Samples;Min_cycle;Max_cycle;Signal;HPM_P1;HPM_P2
2022/01/31 00:00:20;;;;;;;8.05;4.53;;;;;;;;;;5041631;28;20054;-48
2022/01/31 00:02:47;;;;;;;9.60;6.13;;;;;;;;;;5046237;28;20029;-47
2022/01/31 00:05:13;;;;;;;9.23;5.70;;;;;;;;;;5047110;28;20033;-48
2022/01/31 00:07:39;;;;;;;11.57;6.47;;;;;;;;;;5048268;28;20025;-50
2022/01/31 00:10:08;;;;;;;11.88;6.90;;;;;;;;;;5045641;28;20500;-48
2022/01/31 00:12:45;;;;;;;12.57;6.65;;;;;;;;;;5048065;28;20548;-50
2022/01/31 00:15:11;;;;;;;11.38;6.75;;;;;;;;;;5048419;28;20032;-50
2022/01/31 00:17:37;;;;;;;10.20;6.10;;;;;;;;;;5047911;28;20032;-46
2022/01/31 00:20:03;;;;;;;12.95;7.50;;;;;;;;;;5046753;28;20463;-45
2022/01/31 00:22:29;;;;;;;8.73;5.97;;;;;;;;;;5046829;28;20079;-45
2022/01/31 00:24:55;;;;;;;11.63;6.55;;;;;;;;;;5048011;28;20024;-48
2022/01/31 00:27:22;;;;;;;10.13;6.32;;;;;;;;;;5047916;28;20033;-47
2022/01/31 00:29:48;;;;;;;11.10;6.22;;;;;;;;;;5034041;28;20424;-46
2022/01/31 00:32:14;;;;;;;13.38;6.95;;;;;;;;;;5029502;28;20504;-47
2022/01/31 00:34:40;;;;;;;12.18;6.10;;;;;;;;;;5027977;28;20057;-47
2022/01/31 00:37:06;;;;;;;9.93;6.50;;;;;;;;;;5027619;28;20033;-46
2022/01/31 00:39:35;;;;;;;11.55;6.70;;;;;;;;;;5041654;28;20118;-46
2022/01/31 00:42:03;;;;;;;11.75;6.30;;;;;;;;;;5046661;28;20040;-46
2022/01/31 00:44:40;;;;;;;11.40;6.60;;;;;;;;;;5044864;28;20403;-48
2022/01/31 00:47:17;;;;;;;13.20;7.30;;;;;;;;;;5047479;28;20029;-48
2022/01/31 00:50:19;;;;;;;8.60;5.75;;;;;;;;;;5047334;28;20037;-46
2022/01/31 00:52:38;;;;;;;9.98;6.25;;;;;;;;;;5028644;28;20033;-46
2022/01/31 00:55:05;;;;;;;11.05;6.75;;;;;;;;;;5027905;28;20022;-46
2022/01/31 00:57:31;;;;;;;10.35;6.40;;;;;;;;;;5027526;28;20120;-47
2022/01/31 00:59:57;;;;;;;15.25;8.30;;;;;;;;;;5027809;28;20021;-46
2022/01/31 01:02:24;;;;;;;10.70;6.68;;;;;;;;;;5046962;28;20229;-49
2022/01/31 01:04:51;;;;;;;14.07;7.85;;;;;;;;;;5047393;28;20020;-45
2022/01/31 01:07:19;;;;;;;13.93;7.65;;;;;;;;;;5047510;28;20037;-47
2022/01/31 01:09:46;;;;;;;12.93;7.25;;;;;;;;;;5047328;28;20025;-46
2022/01/31 01:12:14;;;;;;;10.13;6.60;;;;;;;;;;5046364;28;20104;-48
2022/01/31 01:14:41;;;;;;;11.15;6.50;;;;;;;;;;5047406;28;20091;-47
2022/01/31 01:17:07;;;;;;;11.23;7.28;;;;;;;;;;5047000;28;20021;-49
2022/01/31 01:19:34;;;;;;;12.15;6.90;;;;;;;;;;5045771;28;20123;-45
2022/01/31 01:22:01;;;;;;;11.90;6.70;;;;;;;;;;5045825;28;20025;-48
2022/01/31 01:24:28;;;;;;;16.50;8.05;;;;;;;;;;5046952;28;20535;-49
2022/01/31 01:26:55;;;;;;;16.83;8.13;;;;;;;;;;5046450;28;20037;-47
2022/01/31 01:29:22;;;;;;;11.05;6.78;;;;;;;;;;5038942;28;20021;-49
2022/01/31 01:31:49;;;;;;;12.40;7.07;;;;;;;;;;5039324;28;20040;-46
2022/01/31 01:34:16;;;;;;;12.02;6.50;;;;;;;;;;5047200;28;20103;-47
2022/01/31 01:36:45;;;;;;;9.98;6.28;;;;;;;;;;5046543;28;20109;-45
2022/01/31 01:39:11;;;;;;;9.68;5.75;;;;;;;;;;5045279;28;20021;-46
2022/01/31 01:41:37;;;;;;;8.73;5.60;;;;;;;;;;5043591;28;20500;-47
2022/01/31 01:44:03;;;;;;;11.02;6.60;;;;;;;;;;5046762;28;20350;-50
2022/01/31 01:46:29;;;;;;;12.18;7.45;;;;;;;;;;5044510;28;20033;-48
2022/01/31 01:48:55;;;;;;;12.30;7.45;;;;;;;;;;5046222;28;20037;-46
2022/01/31 01:51:21;;;;;;;11.93;7.65;;;;;;;;;;5046639;28;20472;-46
2022/01/31 01:53:47;;;;;;;11.45;6.30;;;;;;;;;;5047101;28;20025;-46
2022/01/31 01:56:14;;;;;;;11.35;6.95;;;;;;;;;;5045432;28;20076;-49
2022/01/31 01:58:42;;;;;;;12.13;6.95;;;;;;;;;;5045972;28;20118;-46
2022/01/31 02:01:09;;;;;;;10.23;6.25;;;;;;;;;;5044691;28;20021;-47
2022/01/31 02:03:37;;;;;;;12.30;6.60;;;;;;;;;;5046202;28;20541;-46
2022/01/31 02:06:04;;;;;;;12.30;6.95;;;;;;;;;;5044949;28;20071;-46
2022/01/31 02:08:39;;;;;;;12.38;7.05;;;;;;;;;;5045902;28;20037;-44
2022/01/31 02:11:05;;;;;;;13.38;6.45;;;;;;;;;;5046190;28;20397;-46
2022/01/31 02:13:31;;;;;;;10.70;6.50;;;;;;;;;;5044659;28;20033;-44
2022/01/31 02:15:57;;;;;;;9.43;5.70;;;;;;;;;;5039830;28;20344;-45
2022/01/31 02:18:27;;;;;;;10.82;5.43;;;;;;;;;;5031901;28;20056;-48
2022/01/31 02:20:53;;;;;;;10.45;5.80;;;;;;;;;;5026103;28;20072;-48
2022/01/31 02:23:19;;;;;;;12.63;7.45;;;;;;;;;;5027310;28;20033;-47
2022/01/31 02:26:03;;;;;;;12.48;6.95;;;;;;;;;;5028553;28;20022;-44
2022/01/31 02:28:31;;;;;;;11.00;6.83;;;;;;;;;;5028041;28;20500;-44
2022/01/31 02:30:58;;;;;;;10.43;6.93;;;;;;;;;;5027299;28;20105;-45
2022/01/31 02:33:24;;;;;;;11.45;6.07;;;;;;;;;;5028271;28;20029;-48
2022/01/31 02:35:53;;;;;;;10.27;6.63;;;;;;;;;;5027935;28;20029;-46
2022/01/31 02:38:19;;;;;;;10.65;6.43;;;;;;;;;;5027822;28;20564;-44
2022/01/31 02:40:46;;;;;;;12.82;6.75;;;;;;;;;;5027588;28;20374;-45
2022/01/31 02:43:13;;;;;;;10.43;6.55;;;;;;;;;;5028858;28;20049;-47
2022/01/31 02:45:39;;;;;;;10.93;6.32;;;;;;;;;;5027471;28;20035;-45
2022/01/31 02:48:05;;;;;;;10.63;6.20;;;;;;;;;;5028027;28;20560;-46
2022/01/31 02:50:31;;;;;;;10.95;6.18;;;;;;;;;;5027639;28;20065;-46
2022/01/31 02:53:20;;;;;;;10.27;6.38;;;;;;;;;;5034504;28;20029;-47
2022/01/31 02:55:47;;;;;;;10.90;7.20;;;;;;;;;;5027687;28;20035;-47
2022/01/31 02:58:13;;;;;;;10.52;6.50;;;;;;;;;;5027498;28;20045;-46
2022/01/31 03:00:40;;;;;;;11.32;6.53;;;;;;;;;;5027873;28;20034;-46
2022/01/31 03:03:06;;;;;;;12.48;7.18;;;;;;;;;;5047431;28;20035;-45
2022/01/31 03:05:33;;;;;;;13.15;7.28;;;;;;;;;;5047498;28;20547;-45
2022/01/31 03:07:59;;;;;;;12.50;7.68;;;;;;;;;;5051406;28;20640;-46
2022/01/31 03:10:25;;;;;;;13.43;7.28;;;;;;;;;;5051730;28;20021;-46
2022/01/31 03:12:51;;;;;;;12.02;7.50;;;;;;;;;;5050091;28;20071;-45
2022/01/31 03:15:18;;;;;;;12.63;6.55;;;;;;;;;;5051609;28;20029;-47
2022/01/31 03:17:48;;;;;;;12.20;6.72;;;;;;;;;;5051693;28;20036;-44
2022/01/31 03:20:15;;;;;;;10.13;6.63;;;;;;;;;;5050665;28;20037;-43
2022/01/31 03:22:41;;;;;;;11.98;6.50;;;;;;;;;;5051182;28;20117;-48
2022/01/31 03:25:08;;;;;;;12.15;6.30;;;;;;;;;;5051537;28;20045;-44
2022/01/31 03:27:34;;;;;;;10.27;5.70;;;;;;;;;;5050934;28;20123;-47
2022/01/31 03:30:00;;;;;;;9.68;5.70;;;;;;;;;;5049044;28;20385;-46
2022/01/31 03:32:26;;;;;;;8.45;5.20;;;;;;;;;;5050375;28;20611;-48
2022/01/31 03:34:52;;;;;;;9.23;5.50;;;;;;;;;;5050861;28;20029;-44
2022/01/31 03:37:18;;;;;;;8.65;5.28;;;;;;;;;;5050687;28;20396;-44
2022/01/31 03:39:44;;;;;;;7.70;4.88;;;;;;;;;;5049628;28;20039;-45
2022/01/31 03:42:15;;;;;;;7.60;4.90;;;;;;;;;;5049871;28;20539;-45
2022/01/31 03:44:43;;;;;;;7.82;4.90;;;;;;;;;;5050672;28;20155;-44
2022/01/31 03:47:09;;;;;;;9.25;6.05;;;;;;;;;;5050940;28;20082;-45
2022/01/31 03:49:35;;;;;;;7.07;4.75;;;;;;;;;;5038739;28;20056;-48
2022/01/31 03:52:01;;;;;;;7.85;5.10;;;;;;;;;;5044786;28;20037;-46
2022/01/31 03:54:27;;;;;;;6.40;4.50;;;;;;;;;;5050986;28;20435;-48
2022/01/31 03:56:53;;;;;;;8.43;5.20;;;;;;;;;;5050314;28;20416;-45
2022/01/31 03:59:19;;;;;;;6.93;4.68;;;;;;;;;;5050379;28;20792;-46
2022/01/31 04:01:45;;;;;;;8.90;5.93;;;;;;;;;;5037501;28;20037;-47
2022/01/31 04:04:13;;;;;;;11.73;6.65;;;;;;;;;;5030760;28;20393;-48
2022/01/31 04:06:39;;;;;;;10.63;6.38;;;;;;;;;;5030480;28;20707;-44
2022/01/31 04:09:06;;;;;;;11.27;6.65;;;;;;;;;;5030679;28;20120;-48
2022/01/31 04:11:32;;;;;;;9.73;6.05;;;;;;;;;;5039125;28;20209;-44
2022/01/31 04:13:58;;;;;;;11.00;6.22;;;;;;;;;;5049127;28;20028;-45
2022/01/31 04:16:24;;;;;;;9.07;5.55;;;;;;;;;;5050103;28;20999;-45
2022/01/31 04:18:50;;;;;;;8.30;5.68;;;;;;;;;;5047044;28;20055;-45
2022/01/31 04:21:17;;;;;;;9.52;5.82;;;;;;;;;;5049073;28;20021;-46
2022/01/31 04:23:43;;;;;;;10.80;6.22;;;;;;;;;;5049930;28;20484;-44
2022/01/31 04:26:14;;;;;;;8.73;5.40;;;;;;;;;;5049360;28;20075;-47
2022/01/31 04:28:47;;;;;;;9.75;5.95;;;;;;;;;;5044837;28;20029;-45
2022/01/31 04:33:48;;;;;;;10.05;5.78;;;;;;;;;;5049041;28;20028;-45
2022/01/31 04:36:15;;;;;;;7.72;5.07;;;;;;;;;;5047259;28;20031;-46
2022/01/31 04:38:50;;;;;;;8.88;5.68;;;;;;;;;;5035637;28;20039;-46
2022/01/31 04:41:16;;;;;;;8.13;4.82;;;;;;;;;;5033863;28;20024;-46
2022/01/31 04:43:44;;;;;;;8.43;5.07;;;;;;;;;;5049625;28;20072;-48
2022/01/31 04:46:10;;;;;;;8.30;4.70;;;;;;;;;;5049496;28;20032;-45
2022/01/31 04:48:37;;;;;;;7.20;4.50;;;;;;;;;;5049235;28;20091;-44
2022/01/31 04:51:03;;;;;;;7.55;4.30;;;;;;;;;;5048428;28;20108;-46
2022/01/31 04:53:29;;;;;;;7.53;4.90;;;;;;;;;;5048220;28;20033;-46
2022/01/31 04:55:55;;;;;;;6.95;4.38;;;;;;;;;;5049097;28;20461;-45
2022/01/31 04:58:22;;;;;;;10.32;5.80;;;;;;;;;;5049135;28;20213;-45
2022/01/31 05:00:49;;;;;;;8.95;5.72;;;;;;;;;;5047222;28;20021;-44
2022/01/31 05:03:18;;;;;;;9.43;5.93;;;;;;;;;;5029294;28;20029;-45
2022/01/31 05:05:45;;;;;;;9.90;5.93;;;;;;;;;;5029040;28;20025;-48
2022/01/31 05:08:11;;;;;;;10.85;6.53;;;;;;;;;;5029311;28;20037;-44
2022/01/31 05:10:49;;;;;;;11.48;6.75;;;;;;;;;;5028817;28;20068;-48
2022/01/31 05:13:16;;;;;;;12.95;6.68;;;;;;;;;;5047934;28;20500;-44
2022/01/31 05:15:42;;;;;;;13.00;6.97;;;;;;;;;;5036034;28;20029;-44
2022/01/31 05:18:08;;;;;;;12.48;7.63;;;;;;;;;;5029145;28;20443;-47
2022/01/31 05:20:34;;;;;;;12.45;6.82;;;;;;;;;;5028588;28;20658;-44
2022/01/31 05:23:00;;;;;;;10.82;6.50;;;;;;;;;;5029017;28;20429;-44
2022/01/31 05:25:27;;;;;;;11.25;6.60;;;;;;;;;;5034572;28;20029;-46
2022/01/31 05:27:53;;;;;;;10.73;6.15;;;;;;;;;;5048467;28;20025;-44
2022/01/31 05:30:20;;;;;;;12.13;6.63;;;;;;;;;;5048080;28;20515;-47
2022/01/31 05:32:47;;;;;;;11.93;6.32;;;;;;;;;;5048810;28;20074;-44
2022/01/31 05:35:13;;;;;;;10.43;6.53;;;;;;;;;;5033265;28;20400;-43
2022/01/31 05:37:40;;;;;;;10.13;6.90;;;;;;;;;;5033529;28;20464;-46
2022/01/31 05:40:07;;;;;;;9.82;6.40;;;;;;;;;;5028691;28;20074;-48
2022/01/31 05:42:33;;;;;;;13.45;6.90;;;;;;;;;;5028554;28;20751;-45
2022/01/31 05:44:59;;;;;;;11.55;6.47;;;;;;;;;;5027351;28;20473;-45
2022/01/31 05:47:25;;;;;;;11.88;6.95;;;;;;;;;;5033783;28;20037;-45
2022/01/31 05:49:51;;;;;;;13.43;7.82;;;;;;;;;;5041150;28;20114;-45
2022/01/31 05:52:17;;;;;;;12.63;7.32;;;;;;;;;;5026895;28;20524;-47
2022/01/31 05:54:43;;;;;;;12.23;7.18;;;;;;;;;;5027296;28;20048;-46
2022/01/31 05:57:10;;;;;;;13.77;8.32;;;;;;;;;;5026937;28;20041;-47
2022/01/31 05:59:38;;;;;;;13.55;7.60;;;;;;;;;;5034572;28;20013;-45
2022/01/31 06:02:04;;;;;;;12.20;7.22;;;;;;;;;;5044776;28;20025;-47
2022/01/31 06:04:31;;;;;;;12.40;7.50;;;;;;;;;;5045520;28;20036;-47
2022/01/31 06:06:57;;;;;;;11.52;6.97;;;;;;;;;;5044915;28;20028;-46
2022/01/31 06:09:26;;;;;;;10.77;6.25;;;;;;;;;;5044972;28;20095;-46
2022/01/31 06:11:53;;;;;;;10.13;5.50;;;;;;;;;;5040326;28;20065;-47
2022/01/31 06:14:19;;;;;;;9.23;5.30;;;;;;;;;;5026171;28;20025;-48
2022/01/31 06:16:45;;;;;;;6.53;4.72;;;;;;;;;;5026385;28;20171;-44
2022/01/31 06:19:11;;;;;;;8.50;5.00;;;;;;;;;;5027321;28;20026;-48
2022/01/31 06:21:37;;;;;;;6.85;4.43;;;;;;;;;;5028413;28;20030;-49
2022/01/31 06:24:08;;;;;;;8.32;5.80;;;;;;;;;;5046568;28;20021;-46
2022/01/31 06:26:34;;;;;;;8.63;5.60;;;;;;;;;;5036734;28;20466;-45
2022/01/31 06:29:01;;;;;;;11.77;6.70;;;;;;;;;;5026216;28;20112;-45
2022/01/31 06:31:29;;;;;;;11.93;6.68;;;;;;;;;;5026012;28;20116;-46
2022/01/31 06:33:55;;;;;;;11.02;6.88;;;;;;;;;;5026141;28;20408;-44
2022/01/31 06:36:24;;;;;;;11.45;7.00;;;;;;;;;;5038303;28;20511;-43
2022/01/31 06:38:50;;;;;;;11.60;6.90;;;;;;;;;;5026170;28;20075;-47
2022/01/31 06:41:18;;;;;;;9.02;6.00;;;;;;;;;;5025749;28;20033;-44
2022/01/31 06:43:45;;;;;;;13.60;8.27;;;;;;;;;;5026439;28;20025;-47
2022/01/31 06:46:11;;;;;;;18.05;11.02;;;;;;;;;;5027449;28;20068;-48
2022/01/31 06:48:37;;;;;;;19.85;11.48;;;;;;;;;;5031426;28;20374;-47
2022/01/31 06:51:03;;;;;;;17.73;10.02;;;;;;;;;;5026140;28;20538;-46
2022/01/31 06:53:30;;;;;;;19.05;10.73;;;;;;;;;;5027188;28;20021;-45
2022/01/31 06:55:56;;;;;;;15.10;9.15;;;;;;;;;;5038218;28;20519;-46
2022/01/31 06:58:23;;;;;;;14.10;8.32;;;;;;;;;;5025375;28;20025;-46
2022/01/31 07:00:49;;;;;;;12.95;7.38;;;;;;;;;;5025558;28;20025;-47
2022/01/31 07:03:15;;;;;;;12.27;7.13;;;;;;;;;;5039661;28;20416;-45
2022/01/31 07:05:42;;;;;;;10.88;6.35;;;;;;;;;;5043193;28;20408;-45
2022/01/31 07:08:08;;;;;;;10.32;6.68;;;;;;;;;;5028196;28;20484;-45
2022/01/31 07:10:36;;;;;;;11.80;7.10;;;;;;;;;;5025805;28;20029;-48
2022/01/31 07:13:11;;;;;;;10.80;7.10;;;;;;;;;;5025574;28;20045;-47
2022/01/31 07:15:37;;;;;;;8.80;5.97;;;;;;;;;;5036780;28;20032;-49
2022/01/31 07:18:03;;;;;;;8.77;5.82;;;;;;;;;;5026245;28;20020;-45
2022/01/31 07:20:39;;;;;;;9.20;5.53;;;;;;;;;;5025648;28;20034;-47
2022/01/31 07:23:13;;;;;;;10.70;6.60;;;;;;;;;;5025922;28;20038;-46
2022/01/31 07:25:39;;;;;;;11.45;6.65;;;;;;;;;;5032218;28;20035;-46
2022/01/31 07:28:09;;;;;;;10.35;6.57;;;;;;;;;;5025706;28;20113;-46
2022/01/31 07:30:35;;;;;;;8.98;5.30;;;;;;;;;;5025590;28;20451;-45
2022/01/31 07:33:02;;;;;;;9.50;5.40;;;;;;;;;;5025836;28;20714;-46
2022/01/31 07:35:28;;;;;;;11.48;5.72;;;;;;;;;;5037026;28;20036;-46
2022/01/31 07:37:54;;;;;;;9.95;5.40;;;;;;;;;;5042014;28;20064;-46
2022/01/31 07:40:20;;;;;;;10.38;5.20;;;;;;;;;;5043694;28;20037;-48
2022/01/31 07:42:46;;;;;;;8.48;4.78;;;;;;;;;;5041697;28;20769;-47
2022/01/31 07:45:12;;;;;;;8.80;4.43;;;;;;;;;;5024774;28;20121;-46
2022/01/31 07:47:38;;;;;;;8.60;4.40;;;;;;;;;;5025130;28;20068;-45
2022/01/31 07:50:04;;;;;;;9.82;4.90;;;;;;;;;;5042244;28;20041;-45
2022/01/31 07:52:32;;;;;;;10.65;5.55;;;;;;;;;;5046734;28;20025;-47
2022/01/31 07:54:58;;;;;;;10.25;5.93;;;;;;;;;;5047539;28;20021;-46
2022/01/31 07:57:25;;;;;;;11.23;5.88;;;;;;;;;;5049142;28;20025;-45
2022/01/31 07:59:52;;;;;;;9.70;5.57;;;;;;;;;;5032185;28;20033;-47
2022/01/31 08:02:18;;;;;;;9.73;5.47;;;;;;;;;;5031987;28;20436;-46
2022/01/31 08:04:44;;;;;;;11.18;5.95;;;;;;;;;;5031634;28;20466;-48
2022/01/31 08:07:10;;;;;;;11.05;6.60;;;;;;;;;;5048507;28;20060;-48
2022/01/31 08:09:36;;;;;;;11.45;6.72;;;;;;;;;;5041841;28;20105;-46
2022/01/31 08:12:03;;;;;;;12.10;7.50;;;;;;;;;;5030061;28;20524;-46
2022/01/31 08:14:30;;;;;;;10.85;6.90;;;;;;;;;;5042215;28;20026;-46
2022/01/31 08:16:56;;;;;;;9.55;5.75;;;;;;;;;;5036915;28;20374;-46
2022/01/31 08:19:22;;;;;;;9.90;5.93;;;;;;;;;;5051010;28;20020;-47
2022/01/31 08:21:48;;;;;;;7.03;4.78;;;;;;;;;;5031654;28;20030;-47
2022/01/31 08:24:14;;;;;;;5.53;4.05;;;;;;;;;;5033556;28;20025;-49
2022/01/31 08:26:41;;;;;;;7.35;4.60;;;;;;;;;;5035424;28;20496;-49
2022/01/31 08:29:24;;;;;;;5.50;3.63;;;;;;;;;;5043089;28;20374;-47
2022/01/31 08:31:52;;;;;;;6.30;4.00;;;;;;;;;;5029263;28;20033;-49
2022/01/31 08:34:24;;;;;;;6.45;3.78;;;;;;;;;;5041353;28;20036;-46
2022/01/31 08:36:50;;;;;;;4.97;3.03;;;;;;;;;;5048707;28;20138;-49
2022/01/31 08:39:18;;;;;;;4.10;2.63;;;;;;;;;;5038301;28;20396;-45
2022/01/31 08:41:45;;;;;;;3.65;2.50;;;;;;;;;;5046916;28;20021;-49
2022/01/31 08:44:12;;;;;;;5.43;2.83;;;;;;;;;;5029806;28;20030;-48
2022/01/31 08:46:41;;;;;;;3.80;2.78;;;;;;;;;;5028719;28;20500;-49
2022/01/31 08:49:13;;;;;;;4.20;2.85;;;;;;;;;;5033318;28;20605;-46
2022/01/31 08:51:39;;;;;;;3.95;2.63;;;;;;;;;;5043281;28;20018;-46
2022/01/31 08:54:08;;;;;;;4.38;2.80;;;;;;;;;;5036480;28;20028;-47
2022/01/31 08:56:40;;;;;;;4.45;2.83;;;;;;;;;;5045427;28;20491;-48
2022/01/31 08:59:07;;;;;;;3.72;2.70;;;;;;;;;;5030313;28;20037;-49
2022/01/31 09:01:34;;;;;;;3.85;2.88;;;;;;;;;;5037284;28;20504;-45
2022/01/31 09:04:04;;;;;;;4.80;2.92;;;;;;;;;;5047931;28;20094;-49
2022/01/31 09:06:31;;;;;;;3.97;2.83;;;;;;;;;;5038627;28;20171;-46
2022/01/31 09:08:58;;;;;;;5.18;3.28;;;;;;;;;;5033423;28;20689;-46
2022/01/31 09:11:25;;;;;;;4.35;2.90;;;;;;;;;;5045150;28;20439;-47
2022/01/31 09:13:51;;;;;;;4.60;2.97;;;;;;;;;;5045950;28;20041;-50
2022/01/31 09:16:17;;;;;;;4.18;2.75;;;;;;;;;;5034042;28;20060;-47
2022/01/31 09:18:43;;;;;;;3.80;2.75;;;;;;;;;;5031750;28;20092;-48
2022/01/31 09:21:11;;;;;;;4.88;3.15;;;;;;;;;;5047021;28;20482;-47
2022/01/31 09:23:37;;;;;;;4.90;3.13;;;;;;;;;;5044202;28;20036;-48
2022/01/31 09:26:04;;;;;;;4.72;3.00;;;;;;;;;;5039875;28;20034;-46
2022/01/31 09:28:30;;;;;;;3.95;2.70;;;;;;;;;;5046371;28;20063;-50
2022/01/31 09:30:56;;;;;;;3.95;2.40;;;;;;;;;;5045555;28;20492;-48
2022/01/31 09:33:23;;;;;;;3.88;2.28;;;;;;;;;;5044041;28;20025;-47
2022/01/31 09:35:49;;;;;;;3.17;2.15;;;;;;;;;;5035191;28;20039;-47
2022/01/31 09:38:17;;;;;;;3.55;2.25;;;;;;;;;;5046402;28;20099;-49
2022/01/31 09:40:44;;;;;;;6.15;4.55;;;;;;;;;;5037868;28;20045;-50
2022/01/31 09:48:43;;;;;;;5.38;3.20;;;;;;;;;;5036523;28;20040;-46
2022/01/31 09:51:11;;;;;;;4.50;3.17;;;;;;;;;;5028136;28;20087;-46
2022/01/31 09:53:38;;;;;;;4.90;2.92;;;;;;;;;;5027892;28;20037;-48
2022/01/31 09:56:08;;;;;;;3.78;2.78;;;;;;;;;;5026619;28;20040;-50
2022/01/31 09:58:34;;;;;;;3.20;2.70;;;;;;;;;;5025860;28;20030;-46
2022/01/31 10:01:08;;;;;;;2.92;2.38;;;;;;;;;;5026844;28;20100;-47
2022/01/31 10:03:44;;;;;;;2.92;2.25;;;;;;;;;;5044483;28;20145;-48
2022/01/31 10:06:23;;;;;;;3.55;1.80;;;;;;;;;;5044922;28;20523;-48
2022/01/31 10:08:59;;;;;;;2.22;1.65;;;;;;;;;;5027523;28;20448;-50
2022/01/31 10:11:29;;;;;;;3.10;2.00;;;;;;;;;;5024620;28;20392;-49
2022/01/31 10:17:01;;;;;;;2.63;2.15;;;;;;;;;;5036622;28;20168;-49
2022/01/31 10:19:27;;;;;;;2.92;1.92;;;;;;;;;;5026059;28;20040;-48
2022/01/31 10:22:07;;;;;;;2.80;1.90;;;;;;;;;;5028357;28;20025;-48
2022/01/31 10:24:34;;;;;;;3.22;1.83;;;;;;;;;;5025531;28;20112;-48
2022/01/31 10:27:09;;;;;;;2.25;1.67;;;;;;;;;;5024971;28;20032;-46
2022/01/31 10:29:35;;;;;;;2.60;1.80;;;;;;;;;;5042607;28;20064;-49
2022/01/31 10:32:31;;;;;;;2.60;1.60;;;;;;;;;;5046033;28;20534;-48
2022/01/31 10:35:00;;;;;;;1.67;1.25;;;;;;;;;;5038393;28;20050;-47
2022/01/31 10:37:28;;;;;;;2.97;1.75;;;;;;;;;;5028437;28;20029;-48
2022/01/31 10:54:23;;;;;;;3.25;2.10;;;;;;;;;;5032973;28;20042;-49
2022/01/31 10:56:51;;;;;;;1.92;1.70;;;;;;;;;;5026163;28;20025;-47
2022/01/31 10:59:25;;;;;;;2.47;2.00;;;;;;;;;;5038534;28;20207;-49
2022/01/31 11:01:53;;;;;;;2.35;1.80;;;;;;;;;;5046755;28;20075;-50
2022/01/31 11:04:19;;;;;;;3.00;1.80;;;;;;;;;;5047006;28;20021;-50
2022/01/31 11:06:47;;;;;;;2.45;2.00;;;;;;;;;;5036597;28;20084;-50
2022/01/31 11:09:14;;;;;;;2.25;1.70;;;;;;;;;;5046573;28;20032;-47
2022/01/31 11:11:41;;;;;;;3.08;1.73;;;;;;;;;;5046944;28;20155;-50
2022/01/31 11:14:08;;;;;;;3.45;1.70;;;;;;;;;;5045489;28;20662;-46
2022/01/31 11:16:35;;;;;;;2.40;1.70;;;;;;;;;;5046593;28;20083;-47
2022/01/31 11:19:06;;;;;;;1.85;1.63;;;;;;;;;;5046092;28;20033;-49
2022/01/31 11:21:34;;;;;;;2.22;1.40;;;;;;;;;;5039594;28;20977;-47
2022/01/31 11:24:02;;;;;;;2.30;1.60;;;;;;;;;;5045206;28;20160;-47
2022/01/31 11:26:39;;;;;;;2.05;1.48;;;;;;;;;;5037733;28;20064;-50
2022/01/31 11:29:07;;;;;;;2.85;1.65;;;;;;;;;;5041062;28;20048;-48
2022/01/31 11:31:35;;;;;;;1.83;1.60;;;;;;;;;;5029529;28;20454;-47
2022/01/31 11:34:01;;;;;;;1.98;1.55;;;;;;;;;;5030349;28;20038;-47
2022/01/31 11:36:27;;;;;;;2.20;1.77;;;;;;;;;;5029037;28;20473;-49
2022/01/31 11:38:54;;;;;;;2.03;1.63;;;;;;;;;;5028573;28;20443;-46
2022/01/31 11:41:20;;;;;;;3.60;2.20;;;;;;;;;;5028810;28;20109;-50
2022/01/31 11:43:48;;;;;;;6.03;3.47;;;;;;;;;;5028758;28;20040;-49
2022/01/31 11:46:14;;;;;;;6.05;3.63;;;;;;;;;;5043570;28;20115;-48
2022/01/31 11:48:40;;;;;;;7.65;4.28;;;;;;;;;;5048895;28;20029;-48
2022/01/31 11:51:06;;;;;;;6.65;4.20;;;;;;;;;;5047189;28;20398;-51
2022/01/31 11:53:36;;;;;;;6.53;3.83;;;;;;;;;;5048703;28;20101;-49
2022/01/31 11:56:02;;;;;;;6.45;4.03;;;;;;;;;;5048195;28;20029;-49
2022/01/31 11:58:31;;;;;;;6.20;3.75;;;;;;;;;;5048518;28;20429;-49
2022/01/31 12:00:57;;;;;;;6.28;3.40;;;;;;;;;;5048215;28;20029;-48
2022/01/31 12:03:23;;;;;;;4.97;3.28;;;;;;;;;;5048472;28;20029;-48
2022/01/31 12:05:50;;;;;;;6.30;3.45;;;;;;;;;;5048362;28;20052;-50
2022/01/31 12:08:21;;;;;;;6.97;3.88;;;;;;;;;;5031480;28;20176;-50
2022/01/31 12:10:53;;;;;;;6.78;3.53;;;;;;;;;;5029200;28;20053;-51
2022/01/31 12:13:45;;;;;;;6.40;3.65;;;;;;;;;;5029379;28;20029;-48
2022/01/31 12:24:36;;;;;;;4.57;3.05;;;;;;;;;;5032161;28;20037;-47
2022/01/31 12:27:06;;;;;;;3.67;2.70;;;;;;;;;;5028338;28;20035;-51
2022/01/31 12:29:34;;;;;;;5.40;3.22;;;;;;;;;;5039063;28;20037;-48
2022/01/31 12:32:11;;;;;;;5.32;3.00;;;;;;;;;;5039828;28;20032;-48
2022/01/31 12:34:39;;;;;;;3.22;2.17;;;;;;;;;;5032256;28;20029;-49
2022/01/31 12:37:15;;;;;;;3.85;2.30;;;;;;;;;;5046964;28;20033;-48
2022/01/31 12:39:43;;;;;;;3.55;2.17;;;;;;;;;;5045600;28;20451;-49
2022/01/31 12:42:43;;;;;;;3.13;2.08;;;;;;;;;;5047916;28;20021;-50
2022/01/31 12:45:10;;;;;;;4.10;2.70;;;;;;;;;;5036743;28;20556;-48
2022/01/31 12:47:36;;;;;;;4.38;2.78;;;;;;;;;;5028903;28;20377;-48
2022/01/31 12:50:20;;;;;;;4.47;2.40;;;;;;;;;;5030799;28;20660;-48
2022/01/31 12:52:46;;;;;;;4.03;2.60;;;;;;;;;;5031459;28;20022;-49
2022/01/31 12:55:13;;;;;;;5.75;2.92;;;;;;;;;;5041610;28;20033;-48
2022/01/31 12:57:48;;;;;;;3.97;3.03;;;;;;;;;;5038406;28;20519;-47
2022/01/31 13:00:14;;;;;;;4.75;2.72;;;;;;;;;;5046713;28;20061;-50
2022/01/31 13:02:48;;;;;;;4.00;2.35;;;;;;;;;;5037656;28;20024;-46
2022/01/31 13:05:14;;;;;;;2.57;1.93;;;;;;;;;;5033049;28;20033;-48
2022/01/31 13:07:40;;;;;;;4.13;2.58;;;;;;;;;;5037756;28;20052;-47
2022/01/31 13:10:10;;;;;;;2.63;1.88;;;;;;;;;;5028543;28;20136;-48
2022/01/31 13:12:36;;;;;;;3.40;2.03;;;;;;;;;;5041598;28;20079;-48
2022/01/31 13:15:03;;;;;;;3.00;1.90;;;;;;;;;;5041505;28;20026;-49
2022/01/31 13:17:29;;;;;;;4.18;2.20;;;;;;;;;;5052523;28;20036;-47
2022/01/31 13:20:00;;;;;;;2.03;1.67;;;;;;;;;;5061895;28;20024;-47
2022/01/31 13:25:04;;;;;;;2.75;1.77;;;;;;;;;;5040266;28;20126;-51
2022/01/31 13:27:35;;;;;;;3.65;2.20;;;;;;;;;;5036701;28;20063;-48
2022/01/31 13:30:01;;;;;;;5.35;2.45;;;;;;;;;;5040835;28;20384;-47
2022/01/31 13:32:30;;;;;;;3.00;2.10;;;;;;;;;;5048006;28;20036;-49
2022/01/31 13:34:57;;;;;;;5.95;2.65;;;;;;;;;;5036115;28;20036;-47
2022/01/31 13:37:31;;;;;;;9.05;3.83;;;;;;;;;;5033023;28;20394;-51
2022/01/31 13:39:57;;;;;;;;;;;;;;;;;;5041279;28;20130;-49
2022/01/31 13:42:26;;;;;;;6.70;3.60;;;;;;;;;;5036651;28;20658;-50
2022/01/31 13:44:55;;;;;;;8.30;3.75;;;;;;;;;;5032703;28;20032;-51
2022/01/31 13:47:35;;;;;;;5.13;2.88;;;;;;;;;;5047693;28;20484;-50
2022/01/31 13:50:03;;;;;;;7.82;3.78;;;;;;;;;;5026940;28;20417;-49
2022/01/31 13:52:33;;;;;;;8.25;4.45;;;;;;;;;;5027929;28;20033;-49
2022/01/31 13:55:00;;;;;;;7.90;4.68;;;;;;;;;;5034713;28;20025;-47
2022/01/31 13:57:26;;;;;;;6.47;3.72;;;;;;;;;;5047412;28;20040;-48
2022/01/31 13:59:54;;;;;;;6.47;3.38;;;;;;;;;;5047414;28;20096;-48
2022/01/31 14:02:21;;;;;;;4.20;2.50;;;;;;;;;;5046215;28;20112;-47
2022/01/31 14:04:47;;;;;;;4.05;2.35;;;;;;;;;;5045215;28;20404;-48
2022/01/31 14:07:23;;;;;;;3.13;2.00;;;;;;;;;;5042056;28;20030;-47
2022/01/31 14:09:49;;;;;;;2.65;2.00;;;;;;;;;;5035364;28;20060;-48
2022/01/31 14:12:15;;;;;;;3.38;1.75;;;;;;;;;;5044609;28;20116;-47
2022/01/31 14:14:44;;;;;;;3.75;1.75;;;;;;;;;;5045930;28;20530;-52
2022/01/31 14:17:10;;;;;;;1.80;1.52;;;;;;;;;;5033908;28;20095;-48
2022/01/31 14:19:39;;;;;;;2.13;1.58;;;;;;;;;;5039572;28;20430;-50
2022/01/31 14:22:07;;;;;;;3.78;2.13;;;;;;;;;;5045954;28;20098;-48
2022/01/31 14:24:33;;;;;;;3.65;2.40;;;;;;;;;;5044861;28;20051;-49
2022/01/31 14:27:02;;;;;;;6.18;3.60;;;;;;;;;;5045992;28;20039;-51
2022/01/31 14:29:29;;;;;;;4.43;2.60;;;;;;;;;;5041653;28;20017;-51
2022/01/31 14:31:56;;;;;;;7.60;3.28;;;;;;;;;;5032270;28;21027;-49
2022/01/31 14:34:23;;;;;;;5.75;3.42;;;;;;;;;;5043584;28;20025;-51
2022/01/31 14:36:58;;;;;;;6.70;2.92;;;;;;;;;;5026531;28;20037;-50
2022/01/31 14:47:51;;;;;;;3.28;1.23;;;;;;;;;;5046473;28;20040;-48
2022/01/31 14:50:20;;;;;;;3.45;1.55;;;;;;;;;;5045270;28;20561;-48
2022/01/31 14:52:46;;;;;;;3.22;1.23;;;;;;;;;;5046654;28;20029;-50
2022/01/31 14:55:23;;;;;;;3.17;1.20;;;;;;;;;;5045746;28;20025;-46
2022/01/31 14:57:50;;;;;;;2.97;1.40;;;;;;;;;;5046313;28;20040;-49
2022/01/31 15:00:18;;;;;;;4.05;1.30;;;;;;;;;;5043833;28;20021;-50
2022/01/31 15:02:44;;;;;;;4.30;1.40;;;;;;;;;;5043602;28;20122;-48
2022/01/31 15:05:15;;;;;;;4.15;1.42;;;;;;;;;;5047427;28;20112;-48
2022/01/31 15:07:42;;;;;;;3.58;1.52;;;;;;;;;;5044645;28;20040;-47
2022/01/31 15:10:09;;;;;;;3.33;1.75;;;;;;;;;;5051020;28;20373;-47
2022/01/31 15:12:35;;;;;;;4.82;2.50;;;;;;;;;;5048113;28;20048;-47
2022/01/31 15:15:01;;;;;;;5.30;2.35;;;;;;;;;;5040082;28;20033;-50
2022/01/31 15:17:30;;;;;;;5.22;2.30;;;;;;;;;;5037562;28;20523;-51
2022/01/31 15:19:56;;;;;;;4.28;2.30;;;;;;;;;;5048326;28;20025;-50
2022/01/31 15:22:22;;;;;;;4.18;2.30;;;;;;;;;;5050319;28;20021;-49
2022/01/31 15:24:49;;;;;;;6.00;3.47;;;;;;;;;;5046324;28;20365;-47
2022/01/31 15:27:15;;;;;;;4.07;2.40;;;;;;;;;;5034315;28;20039;-50